sensor_id;sensor_type;location;lat;lon;timestamp;P1;durP1;ratioP1;P2;durP2;ratioP2
13487;SDS011;6816;48.506;9.050;2023-04-24T00:02:20;0.57;;;0.40;;
13487;SDS011;6816;48.506;9.050;2023-04-24T00:05:20;1.17;;;0.50;;
13487;SDS011;6816;48.506;9.050;2023-04-24T00:08:21;0.97;;;0.40;;
13487;SDS011;6816;48.506;9.050;2023-04-24T00:11:23;1.70;;;0.50;;
13487;SDS011;6816;48.506;9.050;2023-04-24T00:14:24;0.53;;;0.53;;
13487;SDS011;6816;48.506;9.050;2023-04-24T00:17:25;2.10;;;0.60;;
13487;SDS011;6816;48.506;9.050;2023-04-24T00:20:25;0.57;;;0.40;;
13487;SDS011;6816;48.506;9.050;2023-04-24T00:23:28;0.70;;;0.53;;
13487;SDS011;6816;48.506;9.050;2023-04-24T00:26:28;0.70;;;0.40;;
13487;SDS011;6816;48.506;9.050;2023-04-24T00:29:29;3.80;;;1.03;;
13487;SDS011;6816;48.506;9.050;2023-04-24T00:32:30;1.13;;;0.53;;
13487;SDS011;6816;48.506;9.050;2023-04-24T00:35:30;1.90;;;0.50;;
13487;SDS011;6816;48.506;9.050;2023-04-24T00:38:31;0.50;;;0.40;;
13487;SDS011;6816;48.506;9.050;2023-04-24T00:41:31;1.17;;;0.43;;
13487;SDS011;6816;48.506;9.050;2023-04-24T00:44:33;0.43;;;0.43;;
13487;SDS011;6816;48.506;9.050;2023-04-24T00:47:34;0.50;;;0.50;;
13487;SDS011;6816;48.506;9.050;2023-04-24T00:50:36;0.50;;;0.50;;
13487;SDS011;6816;48.506;9.050;2023-04-24T00:53:36;1.70;;;0.50;;
13487;SDS011;6816;48.506;9.050;2023-04-24T00:56:37;0.97;;;0.40;;
13487;SDS011;6816;48.506;9.050;2023-04-24T00:59:38;0.67;;;0.50;;
13487;SDS011;6816;48.506;9.050;2023-04-24T01:02:40;0.63;;;0.60;;
13487;SDS011;6816;48.506;9.050;2023-04-24T01:05:45;1.43;;;0.60;;
13487;SDS011;6816;48.506;9.050;2023-04-24T01:08:46;0.60;;;0.53;;
13487;SDS011;6816;48.506;9.050;2023-04-24T01:11:47;2.47;;;0.70;;
13487;SDS011;6816;48.506;9.050;2023-04-24T01:14:48;2.40;;;0.67;;
13487;SDS011;6816;48.506;9.050;2023-04-24T01:17:49;1.20;;;0.60;;
13487;SDS011;6816;48.506;9.050;2023-04-24T01:20:51;1.53;;;0.50;;
13487;SDS011;6816;48.506;9.050;2023-04-24T01:23:54;0.70;;;0.57;;
13487;SDS011;6816;48.506;9.050;2023-04-24T01:26:55;0.63;;;0.50;;
13487;SDS011;6816;48.506;9.050;2023-04-24T01:29:56;0.80;;;0.60;;
13487;SDS011;6816;48.506;9.050;2023-04-24T01:32:57;1.43;;;0.57;;
13487;SDS011;6816;48.506;9.050;2023-04-24T01:35:59;0.60;;;0.40;;
13487;SDS011;6816;48.506;9.050;2023-04-24T01:39:00;1.27;;;0.40;;
13487;SDS011;6816;48.506;9.050;2023-04-24T01:42:01;0.63;;;0.43;;
13487;SDS011;6816;48.506;9.050;2023-04-24T01:45:02;0.80;;;0.60;;
13487;SDS011;6816;48.506;9.050;2023-04-24T01:48:05;1.07;;;0.60;;
13487;SDS011;6816;48.506;9.050;2023-04-24T01:51:05;0.60;;;0.53;;
13487;SDS011;6816;48.506;9.050;2023-04-24T01:54:06;1.27;;;0.50;;
13487;SDS011;6816;48.506;9.050;2023-04-24T01:57:07;1.10;;;0.57;;
13487;SDS011;6816;48.506;9.050;2023-04-24T02:00:08;0.90;;;0.60;;
13487;SDS011;6816;48.506;9.050;2023-04-24T02:03:11;0.77;;;0.60;;
13487;SDS011;6816;48.506;9.050;2023-04-24T02:06:12;0.87;;;0.53;;
13487;SDS011;6816;48.506;9.050;2023-04-24T02:09:12;0.67;;;0.50;;
13487;SDS011;6816;48.506;9.050;2023-04-24T02:12:13;1.10;;;0.60;;
13487;SDS011;6816;48.506;9.050;2023-04-24T02:15:15;0.93;;;0.47;;
13487;SDS011;6816;48.506;9.050;2023-04-24T02:18:16;1.53;;;0.80;;
13487;SDS011;6816;48.506;9.050;2023-04-24T02:21:16;0.90;;;0.60;;
13487;SDS011;6816;48.506;9.050;2023-04-24T02:24:17;0.83;;;0.50;;
13487;SDS011;6816;48.506;9.050;2023-04-24T02:27:18;0.70;;;0.40;;
13487;SDS011;6816;48.506;9.050;2023-04-24T02:30:18;1.33;;;0.50;;
13487;SDS011;6816;48.506;9.050;2023-04-24T02:33:19;0.60;;;0.53;;
13487;SDS011;6816;48.506;9.050;2023-04-24T02:36:20;1.07;;;0.40;;
13487;SDS011;6816;48.506;9.050;2023-04-24T02:39:21;2.57;;;0.50;;
13487;SDS011;6816;48.506;9.050;2023-04-24T02:42:21;0.40;;;0.40;;
13487;SDS011;6816;48.506;9.050;2023-04-24T02:45:22;1.07;;;0.60;;
13487;SDS011;6816;48.506;9.050;2023-04-24T02:48:23;0.73;;;0.40;;
13487;SDS011;6816;48.506;9.050;2023-04-24T02:51:23;1.33;;;0.70;;
13487;SDS011;6816;48.506;9.050;2023-04-24T02:54:25;0.83;;;0.60;;
13487;SDS011;6816;48.506;9.050;2023-04-24T02:57:25;1.30;;;0.70;;
13487;SDS011;6816;48.506;9.050;2023-04-24T03:00:26;0.60;;;0.50;;
13487;SDS011;6816;48.506;9.050;2023-04-24T03:03:26;1.97;;;0.60;;
13487;SDS011;6816;48.506;9.050;2023-04-24T03:06:27;1.40;;;0.60;;
13487;SDS011;6816;48.506;9.050;2023-04-24T03:09:28;0.70;;;0.50;;
13487;SDS011;6816;48.506;9.050;2023-04-24T03:12:28;0.60;;;0.50;;
13487;SDS011;6816;48.506;9.050;2023-04-24T03:15:29;0.83;;;0.70;;
13487;SDS011;6816;48.506;9.050;2023-04-24T03:18:30;0.90;;;0.53;;
13487;SDS011;6816;48.506;9.050;2023-04-24T03:21:30;1.67;;;0.60;;
13487;SDS011;6816;48.506;9.050;2023-04-24T03:24:31;0.80;;;0.50;;
13487;SDS011;6816;48.506;9.050;2023-04-24T03:27:32;1.87;;;0.60;;
13487;SDS011;6816;48.506;9.050;2023-04-24T03:30:32;3.63;;;0.60;;
13487;SDS011;6816;48.506;9.050;2023-04-24T03:33:33;0.50;;;0.50;;
13487;SDS011;6816;48.506;9.050;2023-04-24T03:36:33;0.43;;;0.30;;
13487;SDS011;6816;48.506;9.050;2023-04-24T03:39:34;1.47;;;0.40;;
13487;SDS011;6816;48.506;9.050;2023-04-24T03:42:35;0.90;;;0.50;;
13487;SDS011;6816;48.506;9.050;2023-04-24T03:45:35;0.53;;;0.30;;
13487;SDS011;6816;48.506;9.050;2023-04-24T03:48:36;0.60;;;0.40;;
13487;SDS011;6816;48.506;9.050;2023-04-24T03:51:37;0.60;;;0.40;;
13487;SDS011;6816;48.506;9.050;2023-04-24T03:54:37;0.60;;;0.50;;
13487;SDS011;6816;48.506;9.050;2023-04-24T03:57:39;1.03;;;0.40;;
13487;SDS011;6816;48.506;9.050;2023-04-24T04:00:40;0.80;;;0.50;;
13487;SDS011;6816;48.506;9.050;2023-04-24T04:03:41;0.90;;;0.40;;
13487;SDS011;6816;48.506;9.050;2023-04-24T04:06:42;1.00;;;0.40;;
13487;SDS011;6816;48.506;9.050;2023-04-24T04:09:44;0.83;;;0.50;;
13487;SDS011;6816;48.506;9.050;2023-04-24T04:12:44;1.00;;;0.53;;
13487;SDS011;6816;48.506;9.050;2023-04-24T04:15:45;1.33;;;0.30;;
13487;SDS011;6816;48.506;9.050;2023-04-24T04:18:45;1.43;;;0.60;;
13487;SDS011;6816;48.506;9.050;2023-04-24T04:21:46;2.10;;;0.87;;
13487;SDS011;6816;48.506;9.050;2023-04-24T04:24:52;0.47;;;0.30;;
13487;SDS011;6816;48.506;9.050;2023-04-24T04:27:52;1.23;;;0.70;;
13487;SDS011;6816;48.506;9.050;2023-04-24T04:30:53;0.60;;;0.40;;
13487;SDS011;6816;48.506;9.050;2023-04-24T04:33:54;0.63;;;0.40;;
13487;SDS011;6816;48.506;9.050;2023-04-24T04:36:55;1.83;;;0.50;;
13487;SDS011;6816;48.506;9.050;2023-04-24T04:39:56;2.50;;;0.60;;
13487;SDS011;6816;48.506;9.050;2023-04-24T04:42:58;2.73;;;1.00;;
13487;SDS011;6816;48.506;9.050;2023-04-24T04:45:58;1.43;;;0.67;;
13487;SDS011;6816;48.506;9.050;2023-04-24T04:49:01;1.20;;;0.63;;
13487;SDS011;6816;48.506;9.050;2023-04-24T04:52:02;0.60;;;0.40;;
13487;SDS011;6816;48.506;9.050;2023-04-24T04:55:02;1.17;;;0.67;;
13487;SDS011;6816;48.506;9.050;2023-04-24T04:58:03;1.70;;;0.90;;
13487;SDS011;6816;48.506;9.050;2023-04-24T05:01:04;2.50;;;0.80;;
13487;SDS011;6816;48.506;9.050;2023-04-24T05:04:05;2.20;;;0.67;;
13487;SDS011;6816;48.506;9.050;2023-04-24T05:07:05;1.27;;;0.70;;
13487;SDS011;6816;48.506;9.050;2023-04-24T05:10:06;0.70;;;0.70;;
13487;SDS011;6816;48.506;9.050;2023-04-24T05:13:07;2.83;;;0.80;;
13487;SDS011;6816;48.506;9.050;2023-04-24T05:16:08;0.93;;;0.73;;
13487;SDS011;6816;48.506;9.050;2023-04-24T05:19:09;1.20;;;0.63;;
13487;SDS011;6816;48.506;9.050;2023-04-24T05:22:10;1.10;;;0.70;;
13487;SDS011;6816;48.506;9.050;2023-04-24T05:25:11;1.10;;;0.70;;
13487;SDS011;6816;48.506;9.050;2023-04-24T05:28:12;1.47;;;1.00;;
13487;SDS011;6816;48.506;9.050;2023-04-24T05:31:13;1.57;;;0.90;;
13487;SDS011;6816;48.506;9.050;2023-04-24T05:34:13;2.50;;;0.70;;
13487;SDS011;6816;48.506;9.050;2023-04-24T05:37:16;1.77;;;0.70;;
13487;SDS011;6816;48.506;9.050;2023-04-24T05:40:16;2.60;;;0.93;;
13487;SDS011;6816;48.506;9.050;2023-04-24T05:43:17;1.67;;;0.80;;
13487;SDS011;6816;48.506;9.050;2023-04-24T05:46:17;0.80;;;0.77;;
13487;SDS011;6816;48.506;9.050;2023-04-24T05:49:18;1.30;;;0.83;;
13487;SDS011;6816;48.506;9.050;2023-04-24T05:52:19;1.97;;;0.93;;
13487;SDS011;6816;48.506;9.050;2023-04-24T05:55:19;1.10;;;0.80;;
13487;SDS011;6816;48.506;9.050;2023-04-24T05:58:20;0.97;;;0.97;;
13487;SDS011;6816;48.506;9.050;2023-04-24T06:01:20;2.03;;;1.37;;
13487;SDS011;6816;48.506;9.050;2023-04-24T06:04:21;1.37;;;0.90;;
13487;SDS011;6816;48.506;9.050;2023-04-24T06:07:22;1.90;;;0.93;;
13487;SDS011;6816;48.506;9.050;2023-04-24T06:10:22;1.13;;;0.90;;
13487;SDS011;6816;48.506;9.050;2023-04-24T06:13:23;1.07;;;1.00;;
13487;SDS011;6816;48.506;9.050;2023-04-24T06:16:24;1.70;;;1.10;;
13487;SDS011;6816;48.506;9.050;2023-04-24T06:19:24;1.30;;;0.87;;
13487;SDS011;6816;48.506;9.050;2023-04-24T06:22:25;3.23;;;1.00;;
13487;SDS011;6816;48.506;9.050;2023-04-24T06:25:25;1.63;;;1.07;;
13487;SDS011;6816;48.506;9.050;2023-04-24T06:28:26;1.63;;;0.90;;
13487;SDS011;6816;48.506;9.050;2023-04-24T06:31:27;1.77;;;1.03;;
13487;SDS011;6816;48.506;9.050;2023-04-24T06:34:28;2.50;;;1.10;;
13487;SDS011;6816;48.506;9.050;2023-04-24T06:37:30;1.57;;;1.47;;
13487;SDS011;6816;48.506;9.050;2023-04-24T06:40:32;1.77;;;1.30;;
13487;SDS011;6816;48.506;9.050;2023-04-24T06:43:33;1.30;;;1.20;;
13487;SDS011;6816;48.506;9.050;2023-04-24T06:46:34;2.03;;;1.20;;
13487;SDS011;6816;48.506;9.050;2023-04-24T06:49:38;1.37;;;1.10;;
13487;SDS011;6816;48.506;9.050;2023-04-24T06:52:38;1.00;;;1.00;;
13487;SDS011;6816;48.506;9.050;2023-04-24T06:55:39;1.60;;;1.50;;
13487;SDS011;6816;48.506;9.050;2023-04-24T06:58:40;3.37;;;2.07;;
13487;SDS011;6816;48.506;9.050;2023-04-24T07:01:41;1.20;;;1.10;;
13487;SDS011;6816;48.506;9.050;2023-04-24T07:04:42;1.40;;;1.30;;
13487;SDS011;6816;48.506;9.050;2023-04-24T07:07:46;2.00;;;1.57;;
13487;SDS011;6816;48.506;9.050;2023-04-24T07:10:48;2.97;;;1.37;;
13487;SDS011;6816;48.506;9.050;2023-04-24T07:13:49;1.63;;;1.53;;
13487;SDS011;6816;48.506;9.050;2023-04-24T07:16:50;1.63;;;1.53;;
13487;SDS011;6816;48.506;9.050;2023-04-24T07:19:50;1.23;;;1.13;;
13487;SDS011;6816;48.506;9.050;2023-04-24T07:22:51;1.17;;;1.07;;
13487;SDS011;6816;48.506;9.050;2023-04-24T07:25:53;0.90;;;0.90;;
13487;SDS011;6816;48.506;9.050;2023-04-24T07:28:54;1.03;;;1.00;;
13487;SDS011;6816;48.506;9.050;2023-04-24T07:31:55;1.17;;;0.93;;
13487;SDS011;6816;48.506;9.050;2023-04-24T07:34:56;1.10;;;1.00;;
13487;SDS011;6816;48.506;9.050;2023-04-24T07:37:57;1.07;;;0.97;;
13487;SDS011;6816;48.506;9.050;2023-04-24T07:40:57;0.80;;;0.80;;
13487;SDS011;6816;48.506;9.050;2023-04-24T07:43:58;1.00;;;1.00;;
13487;SDS011;6816;48.506;9.050;2023-04-24T07:46:59;2.23;;;1.23;;
13487;SDS011;6816;48.506;9.050;2023-04-24T07:49:59;2.27;;;1.57;;
13487;SDS011;6816;48.506;9.050;2023-04-24T07:53:00;1.60;;;1.07;;
13487;SDS011;6816;48.506;9.050;2023-04-24T07:56:01;1.73;;;1.00;;
13487;SDS011;6816;48.506;9.050;2023-04-24T07:59:01;1.33;;;1.20;;
13487;SDS011;6816;48.506;9.050;2023-04-24T08:02:02;1.20;;;1.10;;
13487;SDS011;6816;48.506;9.050;2023-04-24T08:05:03;2.20;;;1.30;;
13487;SDS011;6816;48.506;9.050;2023-04-24T08:08:03;1.70;;;1.20;;
13487;SDS011;6816;48.506;9.050;2023-04-24T08:11:04;1.30;;;1.20;;
13487;SDS011;6816;48.506;9.050;2023-04-24T08:14:05;1.23;;;1.13;;
13487;SDS011;6816;48.506;9.050;2023-04-24T08:17:05;1.43;;;1.20;;
13487;SDS011;6816;48.506;9.050;2023-04-24T08:20:06;0.90;;;0.90;;
13487;SDS011;6816;48.506;9.050;2023-04-24T08:23:13;1.30;;;1.20;;
13487;SDS011;6816;48.506;9.050;2023-04-24T08:26:13;1.23;;;1.07;;
13487;SDS011;6816;48.506;9.050;2023-04-24T08:29:14;2.77;;;1.37;;
13487;SDS011;6816;48.506;9.050;2023-04-24T08:32:15;3.37;;;1.27;;
13487;SDS011;6816;48.506;9.050;2023-04-24T08:35:17;2.87;;;1.30;;
13487;SDS011;6816;48.506;9.050;2023-04-24T08:38:17;1.83;;;1.30;;
13487;SDS011;6816;48.506;9.050;2023-04-24T08:41:18;1.40;;;1.20;;
13487;SDS011;6816;48.506;9.050;2023-04-24T08:44:19;1.40;;;1.30;;
13487;SDS011;6816;48.506;9.050;2023-04-24T08:47:20;1.30;;;1.17;;
13487;SDS011;6816;48.506;9.050;2023-04-24T08:50:22;1.93;;;1.20;;
13487;SDS011;6816;48.506;9.050;2023-04-24T08:53:24;2.10;;;1.40;;
13487;SDS011;6816;48.506;9.050;2023-04-24T08:56:26;2.03;;;1.40;;
13487;SDS011;6816;48.506;9.050;2023-04-24T08:59:29;1.83;;;1.40;;
13487;SDS011;6816;48.506;9.050;2023-04-24T09:02:30;3.47;;;1.30;;
13487;SDS011;6816;48.506;9.050;2023-04-24T09:05:32;1.07;;;1.07;;
13487;SDS011;6816;48.506;9.050;2023-04-24T09:08:33;1.20;;;1.10;;
13487;SDS011;6816;48.506;9.050;2023-04-24T09:11:35;1.60;;;1.50;;
13487;SDS011;6816;48.506;9.050;2023-04-24T09:14:37;1.30;;;1.20;;
13487;SDS011;6816;48.506;9.050;2023-04-24T09:17:43;2.00;;;1.43;;
13487;SDS011;6816;48.506;9.050;2023-04-24T09:24:05;1.52;;;1.17;;
13487;SDS011;6816;48.506;9.050;2023-04-24T09:27:07;3.03;;;1.50;;
13487;SDS011;6816;48.506;9.050;2023-04-24T09:30:11;1.45;;;1.35;;
13487;SDS011;6816;48.506;9.050;2023-04-24T09:36:13;1.35;;;1.23;;
13487;SDS011;6816;48.506;9.050;2023-04-24T09:39:18;2.33;;;1.15;;
13487;SDS011;6816;48.506;9.050;2023-04-24T09:42:20;1.90;;;1.40;;
13487;SDS011;6816;48.506;9.050;2023-04-24T09:45:28;1.70;;;1.30;;
13487;SDS011;6816;48.506;9.050;2023-04-24T09:48:36;2.05;;;1.20;;
13487;SDS011;6816;48.506;9.050;2023-04-24T09:51:37;1.90;;;1.05;;
13487;SDS011;6816;48.506;9.050;2023-04-24T09:54:39;1.40;;;1.30;;
13487;SDS011;6816;48.506;9.050;2023-04-24T09:57:46;2.40;;;1.10;;
13487;SDS011;6816;48.506;9.050;2023-04-24T10:00:55;2.97;;;1.00;;
13487;SDS011;6816;48.506;9.050;2023-04-24T10:03:56;1.70;;;1.20;;
13487;SDS011;6816;48.506;9.050;2023-04-24T10:06:57;1.37;;;1.10;;
13487;SDS011;6816;48.506;9.050;2023-04-24T10:09:58;1.17;;;0.93;;
13487;SDS011;6816;48.506;9.050;2023-04-24T10:12:59;2.37;;;1.07;;
13487;SDS011;6816;48.506;9.050;2023-04-24T10:16:01;1.73;;;1.00;;
13487;SDS011;6816;48.506;9.050;2023-04-24T10:19:03;2.50;;;1.40;;
13487;SDS011;6816;48.506;9.050;2023-04-24T10:22:04;1.53;;;1.00;;
13487;SDS011;6816;48.506;9.050;2023-04-24T10:25:06;2.17;;;1.00;;
13487;SDS011;6816;48.506;9.050;2023-04-24T10:28:08;2.27;;;0.90;;
13487;SDS011;6816;48.506;9.050;2023-04-24T10:31:10;0.80;;;0.80;;
13487;SDS011;6816;48.506;9.050;2023-04-24T10:34:12;1.30;;;0.90;;
13487;SDS011;6816;48.506;9.050;2023-04-24T10:37:16;1.65;;;0.70;;
13487;SDS011;6816;48.506;9.050;2023-04-24T10:40:17;2.10;;;0.97;;
13487;SDS011;6816;48.506;9.050;2023-04-24T10:43:19;0.80;;;0.80;;
13487;SDS011;6816;48.506;9.050;2023-04-24T10:46:20;1.00;;;0.90;;
13487;SDS011;6816;48.506;9.050;2023-04-24T10:49:30;1.03;;;0.90;;
13487;SDS011;6816;48.506;9.050;2023-04-24T10:52:47;1.20;;;1.00;;
13487;SDS011;6816;48.506;9.050;2023-04-24T10:55:51;0.80;;;0.70;;
13487;SDS011;6816;48.506;9.050;2023-04-24T10:58:57;2.07;;;0.97;;
13487;SDS011;6816;48.506;9.050;2023-04-24T11:01:58;1.60;;;0.93;;
13487;SDS011;6816;48.506;9.050;2023-04-24T11:04:58;1.50;;;0.90;;
13487;SDS011;6816;48.506;9.050;2023-04-24T11:08:14;0.80;;;0.80;;
13487;SDS011;6816;48.506;9.050;2023-04-24T11:11:16;1.00;;;0.90;;
13487;SDS011;6816;48.506;9.050;2023-04-24T11:14:18;1.17;;;0.97;;
13487;SDS011;6816;48.506;9.050;2023-04-24T11:17:32;1.03;;;1.00;;
13487;SDS011;6816;48.506;9.050;2023-04-24T11:20:33;1.10;;;0.90;;
13487;SDS011;6816;48.506;9.050;2023-04-24T11:23:35;1.20;;;0.70;;
13487;SDS011;6816;48.506;9.050;2023-04-24T11:26:38;2.70;;;0.87;;
13487;SDS011;6816;48.506;9.050;2023-04-24T11:29:39;0.73;;;0.60;;
13487;SDS011;6816;48.506;9.050;2023-04-24T11:33:03;1.47;;;0.90;;
13487;SDS011;6816;48.506;9.050;2023-04-24T11:36:04;1.23;;;0.70;;
13487;SDS011;6816;48.506;9.050;2023-04-24T11:39:05;0.97;;;0.73;;
13487;SDS011;6816;48.506;9.050;2023-04-24T11:42:06;1.33;;;0.80;;
13487;SDS011;6816;48.506;9.050;2023-04-24T11:45:09;0.87;;;0.70;;
13487;SDS011;6816;48.506;9.050;2023-04-24T11:48:11;1.20;;;0.80;;
13487;SDS011;6816;48.506;9.050;2023-04-24T11:51:12;0.60;;;0.60;;
13487;SDS011;6816;48.506;9.050;2023-04-24T11:54:13;0.77;;;0.70;;
13487;SDS011;6816;48.506;9.050;2023-04-24T11:57:15;0.60;;;0.60;;
13487;SDS011;6816;48.506;9.050;2023-04-24T12:00:16;1.93;;;0.87;;
13487;SDS011;6816;48.506;9.050;2023-04-24T12:03:19;2.10;;;1.00;;
13487;SDS011;6816;48.506;9.050;2023-04-24T12:06:19;1.93;;;0.90;;
13487;SDS011;6816;48.506;9.050;2023-04-24T12:09:20;0.90;;;0.90;;
13487;SDS011;6816;48.506;9.050;2023-04-24T12:12:20;2.57;;;0.90;;
13487;SDS011;6816;48.506;9.050;2023-04-24T12:15:26;1.17;;;0.87;;
13487;SDS011;6816;48.506;9.050;2023-04-24T12:18:27;0.60;;;0.60;;
13487;SDS011;6816;48.506;9.050;2023-04-24T12:21:28;1.23;;;0.70;;
13487;SDS011;6816;48.506;9.050;2023-04-24T12:24:30;0.60;;;0.60;;
13487;SDS011;6816;48.506;9.050;2023-04-24T12:27:31;2.03;;;0.77;;
13487;SDS011;6816;48.506;9.050;2023-04-24T12:30:38;1.33;;;0.50;;
13487;SDS011;6816;48.506;9.050;2023-04-24T12:33:48;0.70;;;0.70;;
13487;SDS011;6816;48.506;9.050;2023-04-24T12:36:48;0.70;;;0.70;;
13487;SDS011;6816;48.506;9.050;2023-04-24T12:39:59;0.87;;;0.80;;
13487;SDS011;6816;48.506;9.050;2023-04-24T12:43:17;1.27;;;0.70;;
13487;SDS011;6816;48.506;9.050;2023-04-24T12:46:18;2.40;;;0.93;;
13487;SDS011;6816;48.506;9.050;2023-04-24T12:49:19;1.53;;;1.00;;
13487;SDS011;6816;48.506;9.050;2023-04-24T12:52:19;0.97;;;0.97;;
13487;SDS011;6816;48.506;9.050;2023-04-24T12:55:21;1.07;;;0.90;;
13487;SDS011;6816;48.506;9.050;2023-04-24T12:58:22;1.20;;;1.10;;
13487;SDS011;6816;48.506;9.050;2023-04-24T13:01:22;2.20;;;0.90;;
13487;SDS011;6816;48.506;9.050;2023-04-24T13:04:23;1.30;;;1.00;;
13487;SDS011;6816;48.506;9.050;2023-04-24T13:07:24;1.10;;;0.97;;
13487;SDS011;6816;48.506;9.050;2023-04-24T13:10:25;3.20;;;1.43;;
13487;SDS011;6816;48.506;9.050;2023-04-24T13:13:26;1.70;;;1.23;;
13487;SDS011;6816;48.506;9.050;2023-04-24T13:16:26;1.20;;;1.10;;
13487;SDS011;6816;48.506;9.050;2023-04-24T13:19:27;1.20;;;1.10;;
13487;SDS011;6816;48.506;9.050;2023-04-24T13:22:28;1.43;;;0.80;;
13487;SDS011;6816;48.506;9.050;2023-04-24T13:25:30;1.50;;;1.33;;
13487;SDS011;6816;48.506;9.050;2023-04-24T13:28:35;5.30;;;3.90;;
13487;SDS011;6816;48.506;9.050;2023-04-24T13:31:35;1.83;;;1.60;;
13487;SDS011;6816;48.506;9.050;2023-04-24T13:34:37;1.60;;;1.30;;
13487;SDS011;6816;48.506;9.050;2023-04-24T13:37:38;2.33;;;1.00;;
13487;SDS011;6816;48.506;9.050;2023-04-24T13:40:39;1.53;;;1.07;;
13487;SDS011;6816;48.506;9.050;2023-04-24T13:43:39;1.27;;;1.10;;
13487;SDS011;6816;48.506;9.050;2023-04-24T13:46:43;1.23;;;1.07;;
13487;SDS011;6816;48.506;9.050;2023-04-24T13:49:45;2.37;;;2.17;;
13487;SDS011;6816;48.506;9.050;2023-04-24T13:52:45;1.97;;;1.30;;
13487;SDS011;6816;48.506;9.050;2023-04-24T13:55:46;1.30;;;1.20;;
13487;SDS011;6816;48.506;9.050;2023-04-24T13:58:47;1.00;;;1.00;;
13487;SDS011;6816;48.506;9.050;2023-04-24T14:01:48;2.60;;;1.23;;
13487;SDS011;6816;48.506;9.050;2023-04-24T14:04:49;1.47;;;1.13;;
13487;SDS011;6816;48.506;9.050;2023-04-24T14:07:50;1.20;;;1.10;;
13487;SDS011;6816;48.506;9.050;2023-04-24T14:10:50;1.50;;;1.40;;
13487;SDS011;6816;48.506;9.050;2023-04-24T14:13:51;1.17;;;1.03;;
13487;SDS011;6816;48.506;9.050;2023-04-24T14:16:52;1.30;;;1.20;;
13487;SDS011;6816;48.506;9.050;2023-04-24T14:19:52;2.30;;;1.20;;
13487;SDS011;6816;48.506;9.050;2023-04-24T14:22:56;1.67;;;1.00;;
13487;SDS011;6816;48.506;9.050;2023-04-24T14:25:59;2.33;;;1.10;;
13487;SDS011;6816;48.506;9.050;2023-04-24T14:28:59;1.80;;;1.10;;
13487;SDS011;6816;48.506;9.050;2023-04-24T14:32:00;1.10;;;1.00;;
13487;SDS011;6816;48.506;9.050;2023-04-24T14:35:00;2.80;;;1.37;;
13487;SDS011;6816;48.506;9.050;2023-04-24T14:38:01;1.27;;;1.17;;
13487;SDS011;6816;48.506;9.050;2023-04-24T14:41:02;1.30;;;1.20;;
13487;SDS011;6816;48.506;9.050;2023-04-24T14:44:08;1.10;;;1.00;;
13487;SDS011;6816;48.506;9.050;2023-04-24T14:47:09;1.80;;;1.13;;
13487;SDS011;6816;48.506;9.050;2023-04-24T14:50:10;1.20;;;1.00;;
13487;SDS011;6816;48.506;9.050;2023-04-24T14:53:12;1.10;;;1.00;;
13487;SDS011;6816;48.506;9.050;2023-04-24T14:56:13;1.30;;;1.20;;
13487;SDS011;6816;48.506;9.050;2023-04-24T14:59:14;1.40;;;1.20;;
13487;SDS011;6816;48.506;9.050;2023-04-24T15:02:15;1.00;;;0.90;;
13487;SDS011;6816;48.506;9.050;2023-04-24T15:05:15;1.97;;;1.20;;
13487;SDS011;6816;48.506;9.050;2023-04-24T15:08:16;1.83;;;1.20;;
13487;SDS011;6816;48.506;9.050;2023-04-24T15:11:17;1.77;;;1.07;;
13487;SDS011;6816;48.506;9.050;2023-04-24T15:14:18;1.27;;;1.10;;
13487;SDS011;6816;48.506;9.050;2023-04-24T15:17:18;1.20;;;1.10;;
13487;SDS011;6816;48.506;9.050;2023-04-24T15:20:19;1.33;;;1.20;;
13487;SDS011;6816;48.506;9.050;2023-04-24T15:23:20;1.03;;;1.00;;
13487;SDS011;6816;48.506;9.050;2023-04-24T15:26:21;1.53;;;1.20;;
13487;SDS011;6816;48.506;9.050;2023-04-24T15:29:23;1.90;;;1.20;;
13487;SDS011;6816;48.506;9.050;2023-04-24T15:32:24;1.63;;;1.30;;
13487;SDS011;6816;48.506;9.050;2023-04-24T15:35:25;2.87;;;1.10;;
13487;SDS011;6816;48.506;9.050;2023-04-24T15:38:26;1.80;;;1.10;;
13487;SDS011;6816;48.506;9.050;2023-04-24T15:41:27;1.13;;;1.00;;
13487;SDS011;6816;48.506;9.050;2023-04-24T15:44:27;1.20;;;1.10;;
13487;SDS011;6816;48.506;9.050;2023-04-24T15:47:28;1.40;;;1.10;;
13487;SDS011;6816;48.506;9.050;2023-04-24T15:50:29;2.00;;;1.20;;
13487;SDS011;6816;48.506;9.050;2023-04-24T15:53:30;1.10;;;1.00;;
13487;SDS011;6816;48.506;9.050;2023-04-24T15:56:31;1.97;;;1.20;;
13487;SDS011;6816;48.506;9.050;2023-04-24T15:59:32;1.27;;;1.00;;
13487;SDS011;6816;48.506;9.050;2023-04-24T16:02:32;2.30;;;1.10;;
13487;SDS011;6816;48.506;9.050;2023-04-24T16:05:33;1.23;;;1.00;;
13487;SDS011;6816;48.506;9.050;2023-04-24T16:08:34;1.37;;;1.10;;
13487;SDS011;6816;48.506;9.050;2023-04-24T16:11:35;1.17;;;1.07;;
13487;SDS011;6816;48.506;9.050;2023-04-24T16:14:36;2.47;;;1.07;;
13487;SDS011;6816;48.506;9.050;2023-04-24T16:17:37;2.20;;;1.20;;
13487;SDS011;6816;48.506;9.050;2023-04-24T16:20:38;1.43;;;1.10;;
13487;SDS011;6816;48.506;9.050;2023-04-24T16:23:38;1.10;;;1.00;;
13487;SDS011;6816;48.506;9.050;2023-04-24T16:26:39;1.77;;;1.07;;
13487;SDS011;6816;48.506;9.050;2023-04-24T16:29:40;1.03;;;0.83;;
13487;SDS011;6816;48.506;9.050;2023-04-24T16:32:41;1.10;;;1.00;;
13487;SDS011;6816;48.506;9.050;2023-04-24T16:35:41;1.17;;;0.83;;
13487;SDS011;6816;48.506;9.050;2023-04-24T16:38:43;1.20;;;1.10;;
13487;SDS011;6816;48.506;9.050;2023-04-24T16:41:43;1.00;;;0.90;;
13487;SDS011;6816;48.506;9.050;2023-04-24T16:44:44;2.00;;;0.87;;
13487;SDS011;6816;48.506;9.050;2023-04-24T16:47:45;1.20;;;1.10;;
13487;SDS011;6816;48.506;9.050;2023-04-24T16:50:46;0.80;;;0.80;;
13487;SDS011;6816;48.506;9.050;2023-04-24T16:53:47;0.97;;;0.90;;
13487;SDS011;6816;48.506;9.050;2023-04-24T16:56:47;0.90;;;0.90;;
13487;SDS011;6816;48.506;9.050;2023-04-24T16:59:48;3.13;;;0.77;;
13487;SDS011;6816;48.506;9.050;2023-04-24T17:02:49;0.87;;;0.87;;
13487;SDS011;6816;48.506;9.050;2023-04-24T17:05:49;0.80;;;0.80;;
13487;SDS011;6816;48.506;9.050;2023-04-24T17:08:50;0.90;;;0.90;;
13487;SDS011;6816;48.506;9.050;2023-04-24T17:11:50;1.50;;;0.90;;
13487;SDS011;6816;48.506;9.050;2023-04-24T17:14:51;1.47;;;1.10;;
13487;SDS011;6816;48.506;9.050;2023-04-24T17:17:52;0.87;;;0.87;;
13487;SDS011;6816;48.506;9.050;2023-04-24T17:20:52;1.20;;;1.10;;
13487;SDS011;6816;48.506;9.050;2023-04-24T17:23:53;1.10;;;1.00;;
13487;SDS011;6816;48.506;9.050;2023-04-24T17:26:54;1.93;;;1.40;;
13487;SDS011;6816;48.506;9.050;2023-04-24T17:29:55;1.17;;;1.07;;
13487;SDS011;6816;48.506;9.050;2023-04-24T17:32:58;2.13;;;1.20;;
13487;SDS011;6816;48.506;9.050;2023-04-24T17:35:59;1.93;;;1.10;;
13487;SDS011;6816;48.506;9.050;2023-04-24T17:39:00;2.10;;;1.20;;
13487;SDS011;6816;48.506;9.050;2023-04-24T17:42:02;1.33;;;1.10;;
13487;SDS011;6816;48.506;9.050;2023-04-24T17:45:03;1.33;;;1.10;;
13487;SDS011;6816;48.506;9.050;2023-04-24T17:48:04;1.27;;;1.10;;
13487;SDS011;6816;48.506;9.050;2023-04-24T17:51:04;1.53;;;1.20;;
13487;SDS011;6816;48.506;9.050;2023-04-24T17:54:05;1.57;;;1.27;;
13487;SDS011;6816;48.506;9.050;2023-04-24T17:57:06;1.97;;;1.20;;
13487;SDS011;6816;48.506;9.050;2023-04-24T18:00:07;1.40;;;1.30;;
13487;SDS011;6816;48.506;9.050;2023-04-24T18:03:08;1.37;;;0.97;;
13487;SDS011;6816;48.506;9.050;2023-04-24T18:06:09;1.33;;;1.10;;
13487;SDS011;6816;48.506;9.050;2023-04-24T18:09:10;1.40;;;1.17;;
13487;SDS011;6816;48.506;9.050;2023-04-24T18:12:11;1.30;;;1.17;;
13487;SDS011;6816;48.506;9.050;2023-04-24T18:15:12;1.23;;;1.00;;
13487;SDS011;6816;48.506;9.050;2023-04-24T18:18:12;1.20;;;1.10;;
13487;SDS011;6816;48.506;9.050;2023-04-24T18:21:14;2.20;;;1.30;;
13487;SDS011;6816;48.506;9.050;2023-04-24T18:24:14;0.90;;;0.90;;
13487;SDS011;6816;48.506;9.050;2023-04-24T18:27:15;1.53;;;1.00;;
13487;SDS011;6816;48.506;9.050;2023-04-24T18:30:16;1.00;;;0.90;;
13487;SDS011;6816;48.506;9.050;2023-04-24T18:33:16;2.60;;;1.20;;
13487;SDS011;6816;48.506;9.050;2023-04-24T18:36:18;1.07;;;0.90;;